createdAt,value
2022-09-27T00:00:18.326Z,58.14
2022-09-27T00:01:40.428Z,58.59
2022-09-27T00:02:42.155Z,59.61
2022-09-27T00:03:44.638Z,60.73
2022-09-27T00:04:46.318Z,61.77
2022-09-27T00:05:47.989Z,63.02
2022-09-27T00:06:49.745Z,64.65
2022-09-27T00:07:51.421Z,65.08
2022-09-27T00:08:53.342Z,64.58
2022-09-27T00:09:55.001Z,63.60
2022-09-27T00:11:01.332Z,62.59
2022-09-27T00:12:03.469Z,61.54
2022-09-27T00:13:05.186Z,60.84
2022-09-27T00:14:08.334Z,60.19
2022-09-27T00:15:10.417Z,59.66
2022-09-27T00:16:12.184Z,59.12
2022-09-27T00:17:13.892Z,58.25
2022-09-27T00:18:16.993Z,58.18
2022-09-27T00:19:22.843Z,58.90
2022-09-27T00:20:24.471Z,60.01
2022-09-27T00:21:26.408Z,61.25
2022-09-27T00:22:29.135Z,62.76
2022-09-27T00:23:30.786Z,64.53
2022-09-27T00:24:32.545Z,65.24
2022-09-27T00:25:34.297Z,64.84
2022-09-27T00:26:35.952Z,63.98
2022-09-27T00:27:37.608Z,63.02
2022-09-27T00:28:39.275Z,62.07
2022-09-27T00:29:41.028Z,61.48
2022-09-27T00:30:42.939Z,60.76
2022-09-27T00:31:45.908Z,60.41
2022-09-27T00:32:47.547Z,60.06
2022-09-27T00:33:52.242Z,59.56
2022-09-27T00:34:53.997Z,58.87
2022-09-27T00:35:55.718Z,58.28
2022-09-27T00:36:57.391Z,58.64
2022-09-27T00:37:59.008Z,59.65
2022-09-27T00:39:01.553Z,60.78
2022-09-27T00:40:03.479Z,62.25
2022-09-27T00:41:05.821Z,63.71
2022-09-27T00:42:12.324Z,65.07
2022-09-27T00:43:23.017Z,65.06
2022-09-27T00:44:28.519Z,64.14
2022-09-27T00:45:30.722Z,63.02
2022-09-27T00:46:41.310Z,62.13
2022-09-27T00:47:48.222Z,61.36
2022-09-27T00:49:01.498Z,60.54
2022-09-27T00:50:30.937Z,59.97
2022-09-27T00:51:38.260Z,59.33
2022-09-27T00:52:55.219Z,58.44
2022-09-27T00:53:59.312Z,58.45
2022-09-27T00:55:15.903Z,59.22
2022-09-27T00:56:26.205Z,60.78
2022-09-27T00:57:28.723Z,62.23
2022-09-27T00:58:39.986Z,63.78
2022-09-27T00:59:48.986Z,65.20
2022-09-27T01:00:56.421Z,64.90
2022-09-27T01:01:58.738Z,63.98
2022-09-27T01:03:07.441Z,63.11
2022-09-27T01:04:13.665Z,62.13
2022-09-27T01:05:19.308Z,61.48
2022-09-27T01:06:22.208Z,60.80
2022-09-27T01:07:23.997Z,60.27
2022-09-27T01:08:25.765Z,59.88
2022-09-27T01:09:29.115Z,59.58
2022-09-27T01:10:40.873Z,59.24
2022-09-27T01:11:46.085Z,58.20
2022-09-27T01:12:57.934Z,58.16
2022-09-27T01:14:20.835Z,59.44
2022-09-27T01:15:37.437Z,61.12
2022-09-27T01:17:02.328Z,62.63
2022-09-27T01:18:28.524Z,64.86
2022-09-27T01:20:12.416Z,65.09
2022-09-27T01:21:29.743Z,63.84
2022-09-27T01:22:59.466Z,62.61
2022-09-27T01:24:23.164Z,61.85
2022-09-27T01:26:06.145Z,60.98
2022-09-27T01:27:33.596Z,60.16
2022-09-27T01:28:56.219Z,59.71
2022-09-27T01:30:16.502Z,59.27
2022-09-27T01:31:47.403Z,58.36
2022-09-27T01:33:17.279Z,59.01
2022-09-27T01:34:29.487Z,60.41
2022-09-27T01:35:52.181Z,61.97
2022-09-27T01:37:11.936Z,64.28
2022-09-27T01:38:42.083Z,65.42
2022-09-27T01:40:31.018Z,64.66
2022-09-27T01:41:48.980Z,63.13
2022-09-27T01:43:22.431Z,62.14
2022-09-27T01:44:45.793Z,61.25
2022-09-27T01:46:10.857Z,60.58
2022-09-27T01:47:59.555Z,59.91
2022-09-27T01:49:31.524Z,59.40
2022-09-27T01:51:07.611Z,58.49
2022-09-27T01:52:18.254Z,58.87
2022-09-27T01:53:29.060Z,59.98
2022-09-27T01:54:59.062Z,61.88
2022-09-27T01:56:56.676Z,64.58
2022-09-27T01:58:24.360Z,65.21
2022-09-27T01:59:34.133Z,64.35
2022-09-27T02:00:49.645Z,63.06
2022-09-27T02:01:59.789Z,62.24
2022-09-27T02:03:22.855Z,61.35
2022-09-27T02:04:48.429Z,60.62
2022-09-27T02:06:18.494Z,60.03
2022-09-27T02:08:00.969Z,59.48
2022-09-27T02:09:22.412Z,58.72
2022-09-27T02:10:40.950Z,58.31
2022-09-27T02:11:57.210Z,59.51
2022-09-27T02:13:10.498Z,60.70
2022-09-27T02:14:22.088Z,62.41
2022-09-27T02:15:39.967Z,64.27
2022-09-27T02:17:25.287Z,65.34
2022-09-27T02:18:38.718Z,64.56
2022-09-27T02:19:54.883Z,63.51
2022-09-27T02:21:07.775Z,62.42
2022-09-27T02:22:26.918Z,61.73
2022-09-27T02:23:44.024Z,61.08
2022-09-27T02:25:07.911Z,60.54
2022-09-27T02:26:18.071Z,60.13
2022-09-27T02:27:33.602Z,59.60
2022-09-27T02:29:05.852Z,59.02
2022-09-27T02:30:15.782Z,58.31
2022-09-27T02:31:20.228Z,59.44
2022-09-27T02:32:22.396Z,60.77
2022-09-27T02:33:31.738Z,61.96
2022-09-27T02:34:38.127Z,63.64
2022-09-27T02:35:39.990Z,65.12
2022-09-27T02:36:42.275Z,65.24
2022-09-27T02:37:44.481Z,64.51
2022-09-27T02:38:46.449Z,63.53
2022-09-27T02:39:49.439Z,62.53
2022-09-27T02:40:51.214Z,61.72
2022-09-27T02:41:53.635Z,61.04
2022-09-27T02:42:55.927Z,60.49
2022-09-27T02:44:03.892Z,60.00
2022-09-27T02:45:07.348Z,59.55
2022-09-27T02:46:24.014Z,59.01
2022-09-27T02:47:50.860Z,58.27
2022-09-27T02:49:20.475Z,59.02
2022-09-27T02:51:07.163Z,60.85
2022-09-27T02:52:39.063Z,62.63
2022-09-27T02:54:02.147Z,64.87
2022-09-27T02:55:37.653Z,64.75
2022-09-27T02:57:00.033Z,63.51
2022-09-27T02:58:49.418Z,62.26
2022-09-27T03:00:18.168Z,61.09
2022-09-27T03:02:13.918Z,60.27
2022-09-27T03:04:18.410Z,59.38
2022-09-27T03:05:28.582Z,58.29
2022-09-27T03:06:32.944Z,58.23
2022-09-27T03:07:38.464Z,59.21
2022-09-27T03:08:41.191Z,60.20
2022-09-27T03:09:51.081Z,61.64
2022-09-27T03:10:52.931Z,63.23
2022-09-27T03:11:55.163Z,64.91
2022-09-27T03:12:58.755Z,65.31
2022-09-27T03:14:09.139Z,64.75
2022-09-27T03:15:15.244Z,63.57
2022-09-27T03:16:34.871Z,62.44
2022-09-27T03:17:52.369Z,61.48
2022-09-27T03:18:53.989Z,60.88
2022-09-27T03:20:14.105Z,60.25
2022-09-27T03:21:24.396Z,59.87
2022-09-27T03:22:26.537Z,59.49
2022-09-27T03:23:29.013Z,58.71
2022-09-27T03:24:30.897Z,58.18
2022-09-27T03:25:32.625Z,58.81
2022-09-27T03:26:34.406Z,59.92
2022-09-27T03:27:36.089Z,61.05
2022-09-27T03:28:37.840Z,62.19
2022-09-27T03:29:39.764Z,63.82
2022-09-27T03:30:42.840Z,65.23
2022-09-27T03:31:47.204Z,65.31
2022-09-27T03:33:18.511Z,64.13
2022-09-27T03:34:31.822Z,62.98
2022-09-27T03:35:33.465Z,62.10
2022-09-27T03:36:35.721Z,61.50
2022-09-27T03:37:37.956Z,60.75
2022-09-27T03:38:39.773Z,60.06
2022-09-27T03:39:43.707Z,59.57
2022-09-27T03:40:45.639Z,58.93
2022-09-27T03:41:48.226Z,58.18
2022-09-27T03:42:51.048Z,58.52
2022-09-27T03:43:52.748Z,59.48
2022-09-27T03:44:54.674Z,60.63
2022-09-27T03:45:56.416Z,61.70
2022-09-27T03:46:58.820Z,62.59
2022-09-27T03:48:00.890Z,64.20
2022-09-27T03:49:02.610Z,65.08
2022-09-27T03:50:04.631Z,64.80
2022-09-27T03:51:06.580Z,63.82
2022-09-27T03:52:08.677Z,62.86
2022-09-27T03:53:10.359Z,62.09
2022-09-27T03:54:12.065Z,61.34
2022-09-27T03:55:14.361Z,60.71
2022-09-27T03:56:16.125Z,60.15
2022-09-27T03:57:17.951Z,59.73
2022-09-27T03:58:19.954Z,59.35
2022-09-27T03:59:22.075Z,58.49
2022-09-27T04:00:44.033Z,58.45
2022-09-27T04:01:46.105Z,59.41
2022-09-27T04:02:56.503Z,60.72
2022-09-27T04:03:58.260Z,61.95
2022-09-27T04:05:05.367Z,63.47
2022-09-27T04:06:07.799Z,64.85
2022-09-27T04:07:12.931Z,64.85
2022-09-27T04:08:14.782Z,64.06
2022-09-27T04:09:16.930Z,63.07
2022-09-27T04:10:29.649Z,61.91
2022-09-27T04:11:31.389Z,61.04
2022-09-27T04:12:33.514Z,60.34
2022-09-27T04:13:35.287Z,59.73
2022-09-27T04:14:36.951Z,59.16
2022-09-27T04:16:22.910Z,58.04
2022-09-27T04:17:57.766Z,59.13
2022-09-27T04:19:08.901Z,60.37
2022-09-27T04:20:13.430Z,61.71
2022-09-27T04:21:16.679Z,63.13
2022-09-27T04:22:23.761Z,64.79
2022-09-27T04:23:29.783Z,65.05
2022-09-27T04:24:33.007Z,64.33
2022-09-27T04:25:50.360Z,63.16
2022-09-27T04:27:04.996Z,62.07
2022-09-27T04:28:06.884Z,61.13
2022-09-27T04:29:09.773Z,60.53
2022-09-27T04:30:14.756Z,60.01
2022-09-27T04:32:00.240Z,59.35
2022-09-27T04:33:59.009Z,58.13
2022-09-27T04:35:27.837Z,58.84
2022-09-27T04:36:29.595Z,60.34
2022-09-27T04:37:49.603Z,61.98
2022-09-27T04:38:51.898Z,63.38
2022-09-27T04:39:54.776Z,65.05
2022-09-27T04:40:56.864Z,65.27
2022-09-27T04:41:59.102Z,64.59
2022-09-27T04:43:01.251Z,63.69
2022-09-27T04:44:03.379Z,62.76
2022-09-27T04:45:06.226Z,61.87
2022-09-27T04:46:08.649Z,61.13
2022-09-27T04:47:10.512Z,60.60
2022-09-27T04:48:12.534Z,60.13
2022-09-27T04:49:15.953Z,59.69
2022-09-27T04:50:20.184Z,59.25
2022-09-27T04:51:36.667Z,58.24
2022-09-27T04:52:40.309Z,58.46
2022-09-27T04:53:42.265Z,59.45
2022-09-27T04:54:44.512Z,60.56
2022-09-27T04:55:47.377Z,61.59
2022-09-27T04:56:49.258Z,63.25
2022-09-27T04:57:50.964Z,64.93
2022-09-27T04:58:53.922Z,65.40
2022-09-27T04:59:55.719Z,64.84
2022-09-27T05:00:57.537Z,64.03
2022-09-27T05:02:21.034Z,62.82
2022-09-27T05:04:00.382Z,61.40
2022-09-27T05:05:03.698Z,60.76
2022-09-27T05:06:09.922Z,60.27
2022-09-27T05:07:11.778Z,59.92
2022-09-27T05:08:18.005Z,59.52
2022-09-27T05:09:38.215Z,58.66
2022-09-27T05:10:40.325Z,58.28
2022-09-27T05:11:42.261Z,59.00
2022-09-27T05:13:10.938Z,60.69
2022-09-27T05:14:14.172Z,61.91
2022-09-27T05:15:24.199Z,63.07
2022-09-27T05:16:44.756Z,65.29
2022-09-27T05:18:05.529Z,65.24
2022-09-27T05:19:25.757Z,64.19
2022-09-27T05:20:48.942Z,63.11
2022-09-27T05:21:59.293Z,62.17
2022-09-27T05:23:02.901Z,61.44
2022-09-27T05:24:05.807Z,60.89
2022-09-27T05:25:08.106Z,60.47
2022-09-27T05:26:09.809Z,60.12
2022-09-27T05:27:16.857Z,59.98
2022-09-27T05:28:18.463Z,59.57
2022-09-27T05:29:20.214Z,58.86
2022-09-27T05:30:33.670Z,58.28
2022-09-27T05:31:52.322Z,59.03
2022-09-27T05:32:54.813Z,60.23
2022-09-27T05:34:20.912Z,61.90
2022-09-27T05:35:33.937Z,63.73
2022-09-27T05:36:35.854Z,64.93
2022-09-27T05:37:38.564Z,65.03
2022-09-27T05:38:41.885Z,64.35
2022-09-27T05:39:43.795Z,63.38
2022-09-27T05:40:47.819Z,62.42
2022-09-27T05:42:53.346Z,60.88
2022-09-27T05:43:55.688Z,60.42
2022-09-27T05:44:57.381Z,60.01
2022-09-27T05:45:59.136Z,59.74
2022-09-27T05:47:04.287Z,59.25
2022-09-27T05:48:06.586Z,58.42
2022-09-27T05:49:12.312Z,58.64
2022-09-27T05:50:14.645Z,59.56
2022-09-27T05:51:16.551Z,60.83
2022-09-27T05:52:20.226Z,61.83
2022-09-27T05:53:25.457Z,63.15
2022-09-27T05:54:29.588Z,64.96
2022-09-27T05:55:32.833Z,65.44
2022-09-27T05:56:34.838Z,64.85
2022-09-27T05:58:06.062Z,63.70
2022-09-27T05:59:14.381Z,62.45
2022-09-27T06:00:54.035Z,61.29
2022-09-27T06:02:19.134Z,60.54
2022-09-27T06:03:41.218Z,59.80
2022-09-27T06:05:21.172Z,58.94
2022-09-27T06:07:03.953Z,58.28
2022-09-27T06:08:09.008Z,59.09
2022-09-27T06:09:17.214Z,60.48
2022-09-27T06:10:20.920Z,61.60
2022-09-27T06:11:22.584Z,62.45
2022-09-27T06:12:25.112Z,64.36
2022-09-27T06:13:27.236Z,65.68
2022-09-27T06:14:29.164Z,65.55
2022-09-27T06:15:43.559Z,64.62
2022-09-27T06:16:45.833Z,63.54
2022-09-27T06:17:47.708Z,62.77
2022-09-27T06:18:53.878Z,61.93
2022-09-27T06:19:56.234Z,61.12
2022-09-27T06:21:01.593Z,60.60
2022-09-27T06:22:03.727Z,60.09
2022-09-27T06:23:21.246Z,59.57
2022-09-27T06:24:23.886Z,58.77
2022-09-27T06:25:26.916Z,58.27
2022-09-27T06:27:19.047Z,59.73
2022-09-27T06:28:41.960Z,61.41
2022-09-27T06:29:43.625Z,62.70
2022-09-27T06:30:54.364Z,64.54
2022-09-27T06:32:36.801Z,64.79
2022-09-27T06:34:03.599Z,63.71
2022-09-27T06:35:06.334Z,62.58
2022-09-27T06:36:08.972Z,61.69
2022-09-27T06:37:12.978Z,61.00
2022-09-27T06:38:17.646Z,60.32
2022-09-27T06:39:35.492Z,59.67
2022-09-27T06:40:51.971Z,59.35
2022-09-27T06:42:01.867Z,58.40
2022-09-27T06:43:22.253Z,58.54
2022-09-27T06:44:40.734Z,59.83
2022-09-27T06:46:04.798Z,61.58
2022-09-27T06:47:25.372Z,62.57
2022-09-27T06:49:25.868Z,65.44
2022-09-27T06:50:39.728Z,65.27
2022-09-27T06:51:42.279Z,64.24
2022-09-27T06:52:48.837Z,63.23
2022-09-27T06:53:50.698Z,62.33
2022-09-27T06:54:52.431Z,61.55
2022-09-27T06:56:00.171Z,60.78
2022-09-27T06:57:04.301Z,60.42
2022-09-27T06:58:25.825Z,60.01
2022-09-27T07:00:04.565Z,59.38
2022-09-27T07:01:29.708Z,58.38
2022-09-27T07:03:11.511Z,59.47
2022-09-27T07:04:35.038Z,60.96
2022-09-27T07:05:59.110Z,62.24
2022-09-27T07:07:13.897Z,63.59
2022-09-27T07:08:20.747Z,65.21
2022-09-27T07:09:22.557Z,65.38
2022-09-27T07:10:30.090Z,64.69
2022-09-27T07:11:33.117Z,63.66
2022-09-27T07:12:37.137Z,62.88
2022-09-27T07:13:42.869Z,62.25
2022-09-27T07:14:44.572Z,61.58
2022-09-27T07:15:49.643Z,61.09
2022-09-27T07:16:51.672Z,60.49
2022-09-27T07:17:58.704Z,59.97
2022-09-27T07:19:02.644Z,59.64
2022-09-27T07:20:05.555Z,59.33
2022-09-27T07:21:08.736Z,58.18
2022-09-27T07:22:10.512Z,57.88
2022-09-27T07:23:14.442Z,58.66
2022-09-27T07:24:16.199Z,59.89
2022-09-27T07:25:18.574Z,61.06
2022-09-27T07:26:20.330Z,62.12
2022-09-27T07:27:22.762Z,63.16
2022-09-27T07:28:24.433Z,64.83
2022-09-27T07:29:26.139Z,65.24
2022-09-27T07:30:29.546Z,64.68
2022-09-27T07:31:31.401Z,63.90
2022-09-27T07:32:35.636Z,62.63
2022-09-27T07:33:43.217Z,61.58
2022-09-27T07:34:45.636Z,60.86
2022-09-27T07:35:48.170Z,60.39
2022-09-27T07:36:50.531Z,59.95
2022-09-27T07:37:52.495Z,59.49
2022-09-27T07:38:54.288Z,58.48
2022-09-27T07:39:56.386Z,57.66
2022-09-27T07:40:59.213Z,58.13
2022-09-27T07:42:02.322Z,59.09
2022-09-27T07:43:04.864Z,59.87
2022-09-27T07:44:08.091Z,61.12
2022-09-27T07:45:16.020Z,61.89
2022-09-27T07:47:08.152Z,63.54
2022-09-27T07:49:02.684Z,65.22
2022-09-27T07:50:22.693Z,64.12
2022-09-27T07:51:56.359Z,62.45
2022-09-27T07:53:14.462Z,61.65
2022-09-27T07:54:31.589Z,60.52
2022-09-27T07:56:23.166Z,59.07
2022-09-27T07:57:24.912Z,57.94
2022-09-27T07:58:29.612Z,57.75
2022-09-27T07:59:34.956Z,57.97
2022-09-27T08:00:39.717Z,59.16
2022-09-27T08:01:42.000Z,59.99
2022-09-27T08:02:44.975Z,61.03
2022-09-27T08:03:46.829Z,61.91
2022-09-27T08:04:49.544Z,62.85
2022-09-27T08:05:52.040Z,64.32
2022-09-27T08:06:54.731Z,65.31
2022-09-27T08:07:57.500Z,65.13
2022-09-27T08:09:00.351Z,64.06
2022-09-27T08:10:03.650Z,62.73
2022-09-27T08:11:15.185Z,61.75
2022-09-27T08:12:21.496Z,60.97
2022-09-27T08:13:23.884Z,60.38
2022-09-27T08:14:27.140Z,59.94
2022-09-27T08:15:31.881Z,59.54
2022-09-27T08:16:34.547Z,58.09
2022-09-27T08:18:32.599Z,57.59
2022-09-27T08:19:48.280Z,58.47
2022-09-27T08:21:33.811Z,59.91
2022-09-27T08:22:57.673Z,61.69
2022-09-27T08:24:08.624Z,63.08
2022-09-27T08:25:30.735Z,64.88
2022-09-27T08:27:19.202Z,64.15
2022-09-27T08:28:28.282Z,62.96
2022-09-27T08:29:35.809Z,61.75
2022-09-27T08:30:38.465Z,60.82
2022-09-27T08:31:42.149Z,59.90
2022-09-27T08:32:43.835Z,58.77
2022-09-27T08:33:50.934Z,57.71
2022-09-27T08:34:52.584Z,57.53
2022-09-27T08:35:56.189Z,58.36
2022-09-27T08:36:59.388Z,59.49
2022-09-27T08:38:02.825Z,60.84
2022-09-27T08:39:05.412Z,61.64
2022-09-27T08:40:17.764Z,63.10
2022-09-27T08:41:34.881Z,64.52
2022-09-27T08:42:50.183Z,64.57
2022-09-27T08:44:13.617Z,63.46
2022-09-27T08:45:32.746Z,62.06
2022-09-27T08:46:43.784Z,60.87
2022-09-27T08:48:06.660Z,59.70
2022-09-27T08:49:37.997Z,58.31
2022-09-27T08:50:46.800Z,57.58
2022-09-27T08:51:53.939Z,58.39
2022-09-27T08:53:05.304Z,59.61
2022-09-27T08:54:13.444Z,60.17
2022-09-27T08:55:32.226Z,61.55
2022-09-27T08:56:35.414Z,62.65
2022-09-27T08:57:38.029Z,63.88
2022-09-27T08:59:03.886Z,64.24
2022-09-27T09:00:12.276Z,63.15
2022-09-27T09:01:19.149Z,61.97
2022-09-27T09:02:38.152Z,60.16
2022-09-27T09:03:55.348Z,59.69
2022-09-27T09:05:13.301Z,57.94
2022-09-27T09:06:25.945Z,57.25
2022-09-27T09:07:42.816Z,57.38
2022-09-27T09:09:02.715Z,57.86
2022-09-27T09:10:50.506Z,58.86
2022-09-27T09:12:46.585Z,60.42
2022-09-27T09:14:29.140Z,62.29
2022-09-27T09:15:54.920Z,64.00
2022-09-27T09:17:53.301Z,63.82
2022-09-27T09:19:41.327Z,61.61
2022-09-27T09:21:14.637Z,60.29
2022-09-27T09:22:57.289Z,58.59
2022-09-27T09:24:11.455Z,56.73
2022-09-27T09:25:32.718Z,56.86
2022-09-27T09:26:52.936Z,58.01
2022-09-27T09:28:28.477Z,59.72
2022-09-27T09:30:26.056Z,61.33
2022-09-27T09:31:56.197Z,63.02
2022-09-27T09:33:30.665Z,64.11
2022-09-27T09:34:43.272Z,62.92
2022-09-27T09:36:01.778Z,61.77
2022-09-27T09:37:29.740Z,60.16
2022-09-27T09:38:41.899Z,58.26
2022-09-27T09:40:08.108Z,56.92
2022-09-27T09:41:31.705Z,56.84
2022-09-27T09:42:40.691Z,57.36
2022-09-27T09:43:48.279Z,58.22
2022-09-27T09:45:07.338Z,59.12
2022-09-27T09:46:14.398Z,60.63
2022-09-27T09:47:44.629Z,61.48
2022-09-27T09:49:07.445Z,62.06
2022-09-27T09:50:29.421Z,63.51
2022-09-27T09:51:39.893Z,64.32
2022-09-27T09:52:59.541Z,63.54
2022-09-27T09:54:15.874Z,61.55
2022-09-27T09:55:28.943Z,60.27
2022-09-27T09:56:35.719Z,59.06
2022-09-27T09:57:44.091Z,57.76
2022-09-27T09:58:59.559Z,57.22
2022-09-27T10:00:18.103Z,57.70
2022-09-27T10:01:29.583Z,58.35
2022-09-27T10:02:43.905Z,58.83
2022-09-27T10:03:49.119Z,59.18
2022-09-27T10:04:51.104Z,60.04
2022-09-27T10:05:52.855Z,60.78
2022-09-27T10:06:59.805Z,61.53
2022-09-27T10:08:12.818Z,62.24
2022-09-27T10:09:18.050Z,63.21
2022-09-27T10:10:42.506Z,63.72
2022-09-27T10:11:48.164Z,62.58
2022-09-27T10:13:04.624Z,60.85
2022-09-27T10:14:13.422Z,59.38
2022-09-27T10:15:25.909Z,56.68
2022-09-27T10:16:29.209Z,55.55
2022-09-27T10:17:38.888Z,55.80
2022-09-27T10:18:47.642Z,56.88
2022-09-27T10:19:54.637Z,57.66
2022-09-27T10:21:01.965Z,58.12
2022-09-27T10:22:19.141Z,58.84
2022-09-27T10:23:25.130Z,60.16
2022-09-27T10:25:16.428Z,60.25
2022-09-27T10:26:28.346Z,60.05
2022-09-27T10:27:47.112Z,59.88
2022-09-27T10:28:52.218Z,59.44
2022-09-27T10:30:02.546Z,59.67
2022-09-27T10:31:12.415Z,59.97
2022-09-27T10:32:31.410Z,60.65
2022-09-27T10:34:07.064Z,61.69
2022-09-27T10:35:45.211Z,61.77
2022-09-27T10:37:11.926Z,62.26
2022-09-27T10:38:20.676Z,62.39
2022-09-27T10:39:23.816Z,62.50
2022-09-27T10:40:33.756Z,63.34
2022-09-27T10:41:41.683Z,63.22
2022-09-27T10:42:46.221Z,61.64
2022-09-27T10:43:48.203Z,60.26
2022-09-27T10:45:33.393Z,58.46
2022-09-27T10:46:49.177Z,55.64
2022-09-27T10:47:58.912Z,55.62
2022-09-27T10:49:32.760Z,56.02
2022-09-27T10:50:50.231Z,55.95
2022-09-27T10:52:03.927Z,56.92
2022-09-27T10:53:14.590Z,56.71
2022-09-27T10:54:35.812Z,56.16
2022-09-27T10:55:39.861Z,55.65
2022-09-27T10:56:43.937Z,56.00
2022-09-27T10:57:52.941Z,56.48
2022-09-27T10:58:56.507Z,56.49
2022-09-27T11:00:25.848Z,56.71
2022-09-27T11:01:41.125Z,57.95
2022-09-27T11:03:00.004Z,58.35
2022-09-27T11:04:04.927Z,58.21
2022-09-27T11:05:23.658Z,58.16
2022-09-27T11:06:25.268Z,58.79
2022-09-27T11:07:28.159Z,58.97
2022-09-27T11:08:38.363Z,59.22
2022-09-27T11:09:54.651Z,59.36
2022-09-27T11:11:06.542Z,59.86
2022-09-27T11:12:10.900Z,60.00
2022-09-27T11:13:20.354Z,60.11
2022-09-27T11:14:25.651Z,60.04
2022-09-27T11:15:31.224Z,59.53
2022-09-27T11:17:04.770Z,58.79
2022-09-27T11:18:26.374Z,58.52
2022-09-27T11:19:52.581Z,58.33
2022-09-27T11:21:09.260Z,58.64
2022-09-27T11:22:35.791Z,59.28
2022-09-27T11:23:48.859Z,59.16
2022-09-27T11:25:32.113Z,58.94
2022-09-27T11:26:37.032Z,58.55
2022-09-27T11:27:50.694Z,57.90
2022-09-27T11:29:07.858Z,57.25
2022-09-27T11:31:04.170Z,56.77
2022-09-27T11:32:30.908Z,57.68
2022-09-27T11:33:48.022Z,57.92
2022-09-27T11:35:06.455Z,57.92
2022-09-27T11:36:15.155Z,57.94
2022-09-27T11:37:50.299Z,57.98
2022-09-27T11:39:02.959Z,56.80
2022-09-27T11:40:29.125Z,56.74
2022-09-27T11:42:08.593Z,56.90
2022-09-27T11:43:34.807Z,57.28
2022-09-27T11:45:13.293Z,57.49
2022-09-27T11:46:40.287Z,56.71
2022-09-27T11:48:01.475Z,56.92
2022-09-27T11:49:29.914Z,57.40
2022-09-27T11:50:53.729Z,57.20
2022-09-27T11:52:21.488Z,56.91
2022-09-27T11:53:51.509Z,56.76
2022-09-27T11:55:04.370Z,57.00
2022-09-27T11:56:28.049Z,57.31
2022-09-27T11:57:47.601Z,57.84
2022-09-27T11:59:25.586Z,57.84
2022-09-27T12:00:55.231Z,58.14
2022-09-27T12:02:56.409Z,58.23
2022-09-27T12:04:08.074Z,58.31
2022-09-27T12:05:36.925Z,58.12
2022-09-27T12:06:55.235Z,57.49
2022-09-27T12:08:33.050Z,57.93
2022-09-27T12:09:41.273Z,57.26
2022-09-27T12:10:51.170Z,56.53
2022-09-27T12:12:20.765Z,56.31
2022-09-27T12:13:49.310Z,56.69
2022-09-27T12:15:07.445Z,57.20
2022-09-27T12:16:15.187Z,57.35
2022-09-27T12:17:40.009Z,56.80
2022-09-27T12:18:49.261Z,56.86
2022-09-27T12:20:24.415Z,56.57
2022-09-27T12:21:30.334Z,55.99
2022-09-27T12:23:00.239Z,56.08
2022-09-27T12:24:46.233Z,56.69
2022-09-27T12:26:15.677Z,56.92
2022-09-27T12:27:34.439Z,56.63
2022-09-27T12:28:40.854Z,56.54
2022-09-27T12:29:48.705Z,56.57
2022-09-27T12:31:27.408Z,56.46
2022-09-27T12:32:42.015Z,56.05
2022-09-27T12:34:00.224Z,56.04
2022-09-27T12:35:25.642Z,55.93
2022-09-27T12:38:06.086Z,55.12
2022-09-27T12:39:30.527Z,54.34
2022-09-27T12:40:48.827Z,54.15
2022-09-27T12:42:06.130Z,53.98
2022-09-27T12:43:20.965Z,54.12
2022-09-27T12:44:40.101Z,53.35
2022-09-27T12:46:23.127Z,52.98
2022-09-27T12:47:50.270Z,52.58
2022-09-27T12:49:04.950Z,52.06
2022-09-27T12:50:41.978Z,51.95
2022-09-27T12:51:53.633Z,51.75
2022-09-27T12:53:04.498Z,51.91
2022-09-27T12:54:09.143Z,52.10
2022-09-27T12:55:24.670Z,52.05
2022-09-27T12:56:45.159Z,51.97
2022-09-27T12:58:19.647Z,52.25
2022-09-27T12:59:49.122Z,52.61
2022-09-27T13:01:07.363Z,52.84
2022-09-27T13:02:33.750Z,53.01
2022-09-27T13:03:47.399Z,53.13
2022-09-27T13:04:59.453Z,53.48
2022-09-27T13:06:24.209Z,53.70
2022-09-27T13:07:36.718Z,52.71
2022-09-27T13:09:01.934Z,51.97
2022-09-27T13:10:35.413Z,51.90
2022-09-27T13:11:49.571Z,51.97
2022-09-27T13:12:55.063Z,52.37
2022-09-27T13:14:00.701Z,52.49
2022-09-27T13:15:13.862Z,52.46
2022-09-27T13:16:16.057Z,52.58
2022-09-27T13:17:43.462Z,52.72
2022-09-27T13:19:01.642Z,52.76
2022-09-27T13:20:35.453Z,52.64
2022-09-27T13:21:49.275Z,53.03
2022-09-27T13:23:31.798Z,52.62
2022-09-27T13:24:38.791Z,52.74
2022-09-27T13:26:03.706Z,52.57
2022-09-27T13:27:25.811Z,52.73
2022-09-27T13:28:33.796Z,52.69
2022-09-27T13:29:35.772Z,52.78
2022-09-27T13:30:41.645Z,53.19
2022-09-27T13:31:55.098Z,53.78
2022-09-27T13:33:56.490Z,54.64
2022-09-27T13:35:19.651Z,55.16
2022-09-27T13:36:28.174Z,55.47
2022-09-27T13:37:52.046Z,55.59
2022-09-27T13:39:06.187Z,55.08
2022-09-27T13:40:30.831Z,55.02
2022-09-27T13:42:35.715Z,55.19
2022-09-27T13:44:05.698Z,55.31
2022-09-27T13:45:31.377Z,55.23
2022-09-27T13:46:36.256Z,55.58
2022-09-27T13:47:47.030Z,55.90
2022-09-27T13:49:00.949Z,55.72
2022-09-27T13:50:37.760Z,55.44
2022-09-27T13:51:51.557Z,54.99
2022-09-27T13:53:00.630Z,54.43
2022-09-27T13:54:10.352Z,53.96
2022-09-27T13:55:42.105Z,53.75
2022-09-27T13:56:51.714Z,53.68
2022-09-27T13:58:03.882Z,53.62
2022-09-27T13:59:12.604Z,53.35
2022-09-27T14:00:25.782Z,53.13
2022-09-27T14:01:40.247Z,53.07
2022-09-27T14:03:06.580Z,52.68
2022-09-27T14:04:18.411Z,52.57
2022-09-27T14:05:31.771Z,52.72
2022-09-27T14:06:42.341Z,52.89
2022-09-27T14:07:49.714Z,53.06
2022-09-27T14:09:01.356Z,53.14
2022-09-27T14:10:05.504Z,53.24
2022-09-27T14:11:15.468Z,53.37
2022-09-27T14:12:40.713Z,53.67
2022-09-27T14:13:47.117Z,53.94
2022-09-27T14:14:51.990Z,54.14
2022-09-27T14:15:58.017Z,54.30
2022-09-27T14:17:02.458Z,54.56
2022-09-27T14:18:14.807Z,54.85
2022-09-27T14:19:21.525Z,55.16
2022-09-27T14:20:47.111Z,55.47
2022-09-27T14:22:23.455Z,56.14
2022-09-27T14:23:37.058Z,56.59
2022-09-27T14:24:39.731Z,56.97
2022-09-27T14:25:52.119Z,57.34
2022-09-27T14:27:11.273Z,57.63
2022-09-27T14:28:29.044Z,58.03
2022-09-27T14:29:53.560Z,58.41
2022-09-27T14:31:19.493Z,58.73
2022-09-27T14:32:36.904Z,59.16
2022-09-27T14:33:45.016Z,59.49
2022-09-27T14:35:05.697Z,59.73
2022-09-27T14:36:45.248Z,60.08
2022-09-27T14:37:52.022Z,60.67
2022-09-27T14:38:54.280Z,61.07
2022-09-27T14:40:20.170Z,61.44
2022-09-27T14:41:24.539Z,61.83
2022-09-27T14:42:29.000Z,62.09
2022-09-27T14:43:33.055Z,62.39
2022-09-27T14:44:35.430Z,62.95
2022-09-27T14:45:40.198Z,63.77
2022-09-27T14:46:41.949Z,63.39
2022-09-27T14:47:49.645Z,62.31
2022-09-27T14:48:51.349Z,60.92
2022-09-27T14:50:11.038Z,59.64
2022-09-27T14:51:15.077Z,57.18
2022-09-27T14:52:31.334Z,56.24
2022-09-27T14:53:37.772Z,56.42
2022-09-27T14:54:39.652Z,57.03
2022-09-27T14:55:45.556Z,57.77
2022-09-27T14:56:51.424Z,58.55
2022-09-27T14:58:02.716Z,59.24
2022-09-27T14:59:16.277Z,59.83
2022-09-27T15:00:28.901Z,60.54
2022-09-27T15:01:30.683Z,61.06
2022-09-27T15:02:33.410Z,61.57
2022-09-27T15:03:42.384Z,61.94
2022-09-27T15:04:49.935Z,62.38
2022-09-27T15:05:52.754Z,63.19
2022-09-27T15:06:56.182Z,64.04
2022-09-27T15:08:02.231Z,63.61
2022-09-27T15:09:07.077Z,62.35
2022-09-27T15:10:17.157Z,60.99
2022-09-27T15:11:20.461Z,59.69
2022-09-27T15:12:26.682Z,58.23
2022-09-27T15:13:29.547Z,56.91
2022-09-27T15:14:33.811Z,56.86
2022-09-27T15:15:40.048Z,57.36
2022-09-27T15:16:43.393Z,58.15
2022-09-27T15:17:46.438Z,58.96
2022-09-27T15:18:58.502Z,59.74
2022-09-27T15:20:32.162Z,60.60
2022-09-27T15:21:38.879Z,61.54
2022-09-27T15:22:44.608Z,62.10
2022-09-27T15:23:46.348Z,62.70
2022-09-27T15:24:48.206Z,63.86
2022-09-27T15:26:07.541Z,64.05
2022-09-27T15:27:23.200Z,62.81
2022-09-27T15:28:27.985Z,61.20
2022-09-27T15:29:29.884Z,60.09
2022-09-27T15:30:36.732Z,58.81
2022-09-27T15:31:38.611Z,57.30
2022-09-27T15:32:40.363Z,56.93
2022-09-27T15:33:42.942Z,57.31
2022-09-27T15:34:44.762Z,58.12
2022-09-27T15:35:52.861Z,58.97
2022-09-27T15:37:03.426Z,59.77
2022-09-27T15:38:23.388Z,60.48
2022-09-27T15:39:32.436Z,61.46
2022-09-27T15:40:58.246Z,62.15
2022-09-27T15:42:17.636Z,63.38
2022-09-27T15:43:37.213Z,64.21
2022-09-27T15:44:54.986Z,63.34
2022-09-27T15:46:03.635Z,61.59
2022-09-27T15:47:05.436Z,60.32
2022-09-27T15:48:18.338Z,59.34
2022-09-27T15:49:22.784Z,57.63